Aviation Digital Data Service (ADDS)

Output produced by METARs form (2213 UTC 25 April 2019)
found at http://aviationweather.gov/metar/data/
 
TAF EPDA 252000Z 2521/2606 03005KT CAVOK 
     TEMPO 2600/2606 4000 BR 
     PROB40 2602/2605 0800 FG